createdAt,value
2018-11-10T00:02:13.178Z,78.43
2018-11-10T00:04:41.828Z,84.87
2018-11-10T00:07:10.752Z,79.67
2018-11-10T00:09:39.392Z,77.97
2018-11-10T00:12:08.119Z,67.50
2018-11-10T00:14:36.780Z,70.80
2018-11-10T00:17:06.127Z,73.13
2018-11-10T00:19:34.914Z,77.70
2018-11-10T00:22:03.600Z,70.43
2018-11-10T00:24:32.236Z,76.47
2018-11-10T00:27:01.261Z,69.03
2018-11-10T00:29:29.957Z,71.83
2018-11-10T00:31:58.653Z,78.70
2018-11-10T00:34:27.342Z,78.27
2018-11-10T00:36:55.992Z,69.13
2018-11-10T00:39:24.741Z,72.17
2018-11-10T00:41:53.468Z,84.33
2018-11-10T00:44:22.147Z,73.17
2018-11-10T00:46:50.856Z,69.83
2018-11-10T00:49:19.512Z,76.60
2018-11-10T00:51:48.240Z,78.33
2018-11-10T00:54:16.900Z,106.70
2018-11-10T00:56:45.565Z,85.13
2018-11-10T00:59:14.213Z,77.47
2018-11-10T01:01:42.868Z,83.17
2018-11-10T01:04:11.544Z,76.37
2018-11-10T01:06:40.293Z,70.57
2018-11-10T01:09:09.457Z,76.53
2018-11-10T01:11:38.143Z,121.63
2018-11-10T01:14:07.459Z,74.33
2018-11-10T01:16:36.233Z,72.60
2018-11-10T01:19:05.431Z,67.33
2018-11-10T01:21:34.309Z,78.63
2018-11-10T01:24:03.009Z,72.37
2018-11-10T01:26:31.667Z,75.63
2018-11-10T01:29:00.343Z,68.47
2018-11-10T01:31:28.993Z,70.33
2018-11-10T01:33:57.651Z,102.07
2018-11-10T01:36:26.327Z,78.03
2018-11-10T01:38:55.084Z,82.57
2018-11-10T01:41:23.739Z,69.57
2018-11-10T01:43:52.421Z,71.53
2018-11-10T01:46:21.076Z,78.10
2018-11-10T01:48:49.727Z,75.00
2018-11-10T01:51:18.398Z,89.27
2018-11-10T01:53:47.069Z,73.73
2018-11-10T01:56:15.714Z,80.17
2018-11-10T01:58:44.404Z,103.57
2018-11-10T02:01:13.052Z,72.60
2018-11-10T02:03:41.734Z,78.23
2018-11-10T02:06:10.421Z,71.33
2018-11-10T02:08:39.144Z,128.90
2018-11-10T02:11:08.050Z,117.20
2018-11-10T02:13:36.798Z,96.60
2018-11-10T02:16:05.509Z,76.07
2018-11-10T02:18:34.168Z,75.03
2018-11-10T02:21:02.842Z,66.00
2018-11-10T02:23:31.582Z,101.17
2018-11-10T02:26:00.226Z,70.87
2018-11-10T02:28:28.936Z,77.20
2018-11-10T02:30:57.589Z,77.73
2018-11-10T02:33:26.276Z,126.07
2018-11-10T02:35:54.906Z,91.27
2018-11-10T02:38:23.601Z,83.33
2018-11-10T02:40:52.259Z,80.10
2018-11-10T02:43:20.940Z,67.80
2018-11-10T02:45:49.590Z,78.87
2018-11-10T02:48:18.240Z,73.33
2018-11-10T02:50:47.026Z,65.90
2018-11-10T02:53:15.690Z,69.50
2018-11-10T02:55:44.365Z,67.53
2018-11-10T02:58:13.019Z,63.20
2018-11-10T03:00:41.835Z,62.63
2018-11-10T03:03:10.495Z,60.60
2018-11-10T03:05:39.253Z,62.80
2018-11-10T03:08:08.035Z,69.23
2018-11-10T03:10:36.852Z,67.70
2018-11-10T03:13:05.707Z,58.50
2018-11-10T03:15:34.369Z,58.70
2018-11-10T03:18:03.050Z,62.40
2018-11-10T03:20:31.772Z,63.93
2018-11-10T03:23:00.419Z,62.50
2018-11-10T03:25:29.084Z,57.57
2018-11-10T03:27:57.733Z,62.90
2018-11-10T03:30:26.404Z,60.07
2018-11-10T03:32:55.061Z,61.53
2018-11-10T03:35:23.747Z,58.57
2018-11-10T03:37:52.423Z,65.83
2018-11-10T03:40:21.103Z,55.00
2018-11-10T03:42:49.754Z,61.27
2018-11-10T03:45:18.422Z,90.00
2018-11-10T03:47:47.057Z,66.37
2018-11-10T03:50:15.712Z,98.27
2018-11-10T03:52:44.356Z,67.63
2018-11-10T03:55:13.055Z,65.40
2018-11-10T03:57:41.732Z,61.40
2018-11-10T04:00:12.122Z,62.93
2018-11-10T04:02:41.756Z,75.77
2018-11-10T04:05:11.096Z,68.37
2018-11-10T04:07:40.479Z,59.53
2018-11-10T04:10:09.166Z,64.67
2018-11-10T04:12:37.828Z,61.87
2018-11-10T04:15:06.587Z,61.53
2018-11-10T04:17:35.256Z,65.30
2018-11-10T04:20:04.253Z,59.20
2018-11-10T04:22:34.764Z,61.10
2018-11-10T04:25:04.844Z,61.87
2018-11-10T04:27:34.170Z,58.53
2018-11-10T04:30:03.906Z,70.07
2018-11-10T04:32:32.974Z,69.90
2018-11-10T04:35:01.661Z,59.20
2018-11-10T04:37:30.330Z,63.33
2018-11-10T04:39:59.005Z,67.73
2018-11-10T04:42:27.701Z,62.03
2018-11-10T04:44:56.365Z,56.80
2018-11-10T04:47:25.269Z,55.20
2018-11-10T04:49:54.036Z,66.00
2018-11-10T04:52:22.617Z,62.10
2018-11-10T04:54:51.300Z,62.23
2018-11-10T04:57:19.954Z,59.07
2018-11-10T04:59:48.629Z,57.73
2018-11-10T05:02:17.289Z,61.00
2018-11-10T05:04:45.940Z,63.83
2018-11-10T05:07:14.635Z,72.60
2018-11-10T05:09:43.309Z,67.23
2018-11-10T05:12:11.998Z,58.03
2018-11-10T05:14:40.681Z,56.80
2018-11-10T05:17:09.495Z,56.13
2018-11-10T05:19:38.190Z,69.00
2018-11-10T05:22:06.882Z,60.60
2018-11-10T05:24:35.555Z,62.97
2018-11-10T05:27:04.688Z,66.83
2018-11-10T05:29:33.420Z,71.10
2018-11-10T05:32:02.339Z,67.30
2018-11-10T05:34:31.009Z,65.80
2018-11-10T05:36:59.735Z,80.90
2018-11-10T05:39:28.373Z,90.17
2018-11-10T05:41:57.053Z,62.27
2018-11-10T05:44:25.720Z,62.33
2018-11-10T05:46:54.426Z,67.10
2018-11-10T05:49:23.068Z,58.90
2018-11-10T05:51:51.730Z,57.00
2018-11-10T05:54:20.451Z,58.70
2018-11-10T05:56:49.110Z,64.60
2018-11-10T05:59:17.796Z,55.13
2018-11-10T06:01:46.504Z,53.27
2018-11-10T06:04:15.173Z,65.07
2018-11-10T06:06:43.831Z,57.90
2018-11-10T06:09:12.607Z,50.30
2018-11-10T06:11:41.400Z,58.30
2018-11-10T06:14:10.185Z,53.03
2018-11-10T06:16:38.902Z,50.50
2018-11-10T06:19:07.577Z,61.30
2018-11-10T06:21:36.317Z,66.57
2018-11-10T06:24:05.057Z,63.67
2018-11-10T06:26:33.712Z,52.27
2018-11-10T06:29:02.444Z,76.07
2018-11-10T06:31:31.293Z,57.07
2018-11-10T06:34:00.138Z,68.30
2018-11-10T06:36:28.849Z,57.63
2018-11-10T06:38:57.605Z,65.50
2018-11-10T06:41:26.344Z,73.03
2018-11-10T06:43:54.942Z,66.87
2018-11-10T06:46:23.609Z,58.00
2018-11-10T06:48:52.303Z,55.20
2018-11-10T06:51:21.015Z,55.73
2018-11-10T06:53:49.707Z,59.77
2018-11-10T06:56:18.404Z,65.07
2018-11-10T06:58:47.087Z,63.40
2018-11-10T07:01:15.883Z,64.70
2018-11-10T07:03:44.555Z,76.17
2018-11-10T07:06:13.240Z,102.00
2018-11-10T07:08:41.900Z,72.77
2018-11-10T07:11:10.645Z,86.67
2018-11-10T07:13:39.299Z,79.80
2018-11-10T07:16:08.040Z,63.10
2018-11-10T07:18:36.821Z,59.97
2018-11-10T07:21:05.596Z,60.83
2018-11-10T07:23:34.456Z,62.40
2018-11-10T07:26:03.146Z,107.50
2018-11-10T07:28:31.818Z,53.30
2018-11-10T07:31:00.550Z,56.87
2018-11-10T07:33:29.294Z,59.10
2018-11-10T07:35:58.004Z,65.47
2018-11-10T07:38:26.637Z,57.90
2018-11-10T07:40:55.347Z,58.73
2018-11-10T07:43:24.081Z,64.27
2018-11-10T07:45:52.764Z,47.90
2018-11-10T07:48:21.440Z,56.10
2018-11-10T07:50:50.137Z,52.43
2018-11-10T07:53:18.865Z,56.27
2018-11-10T07:55:47.606Z,57.07
2018-11-10T07:58:16.213Z,52.57
2018-11-10T08:00:44.894Z,56.07
2018-11-10T08:03:13.764Z,63.70
2018-11-10T08:05:42.425Z,58.80
2018-11-10T08:08:11.092Z,60.57
2018-11-10T08:10:39.768Z,69.30
2018-11-10T08:13:08.432Z,74.67
2018-11-10T08:15:37.112Z,66.97
2018-11-10T08:18:05.785Z,66.77
2018-11-10T08:20:34.447Z,68.27
2018-11-10T08:23:03.171Z,69.03
2018-11-10T08:25:32.020Z,69.03
2018-11-10T08:28:00.746Z,67.87
2018-11-10T08:30:29.486Z,71.07
2018-11-10T08:32:58.145Z,79.47
2018-11-10T08:35:26.928Z,72.13
2018-11-10T08:37:55.649Z,71.63
2018-11-10T08:40:24.512Z,64.47
2018-11-10T08:42:53.164Z,69.77
2018-11-10T08:45:22.061Z,63.80
2018-11-10T08:47:50.783Z,60.03
2018-11-10T08:50:19.491Z,64.57
2018-11-10T08:52:48.153Z,66.83
2018-11-10T08:55:16.901Z,76.20
2018-11-10T08:57:45.683Z,66.03
2018-11-10T09:00:14.348Z,67.47
2018-11-10T09:02:43.073Z,70.13
2018-11-10T09:05:13.119Z,61.63
2018-11-10T09:07:42.119Z,66.90
2018-11-10T09:10:11.982Z,63.87
2018-11-10T09:12:40.706Z,72.83
2018-11-10T09:15:11.644Z,64.60
2018-11-10T09:17:40.839Z,71.13
2018-11-10T09:20:10.926Z,66.93
2018-11-10T09:22:39.734Z,59.90
2018-11-10T09:25:10.254Z,63.63
2018-11-10T09:27:38.974Z,63.77
2018-11-10T09:30:08.845Z,62.77
2018-11-10T09:32:37.635Z,63.23
2018-11-10T09:35:06.942Z,58.10
2018-11-10T09:37:35.934Z,65.43
2018-11-10T09:40:04.858Z,61.77
2018-11-10T09:42:33.738Z,62.87
2018-11-10T09:45:02.268Z,60.83
2018-11-10T09:47:30.955Z,59.47
2018-11-10T09:49:59.671Z,61.00
2018-11-10T09:52:28.429Z,59.20
2018-11-10T09:54:57.145Z,54.13
2018-11-10T09:57:25.852Z,57.87
2018-11-10T09:59:54.590Z,61.27
2018-11-10T10:02:23.688Z,60.23
2018-11-10T10:04:52.176Z,58.13
2018-11-10T10:07:20.853Z,57.10
2018-11-10T10:09:49.573Z,58.47
2018-11-10T10:12:18.457Z,57.47
2018-11-10T10:14:47.141Z,57.63
2018-11-10T10:17:16.793Z,59.10
2018-11-10T10:19:45.525Z,54.90
2018-11-10T10:22:14.197Z,53.97
2018-11-10T10:24:43.053Z,57.00
2018-11-10T10:27:11.805Z,57.93
2018-11-10T10:29:40.535Z,54.83
2018-11-10T10:32:09.255Z,59.57
2018-11-10T10:34:38.030Z,52.17
2018-11-10T10:37:06.854Z,56.30
2018-11-10T10:39:35.809Z,51.37
2018-11-10T10:42:04.500Z,56.17
2018-11-10T10:44:33.310Z,57.97
2018-11-10T10:47:02.006Z,57.17
2018-11-10T10:49:30.733Z,52.73
2018-11-10T10:51:59.417Z,44.67
2018-11-10T10:54:28.161Z,51.77
2018-11-10T10:56:57.016Z,51.03
2018-11-10T10:59:25.747Z,48.10
2018-11-10T11:01:59.844Z,50.27
2018-11-10T11:04:33.939Z,44.40
2018-11-10T11:07:02.659Z,49.60
2018-11-10T11:09:32.940Z,49.53
2018-11-10T11:12:01.658Z,49.07
2018-11-10T11:14:30.380Z,50.07
2018-11-10T11:16:59.044Z,52.80
2018-11-10T11:19:27.766Z,48.27
2018-11-10T11:21:56.692Z,47.80
2018-11-10T11:24:25.446Z,45.07
2018-11-10T11:26:54.404Z,45.40
2018-11-10T11:29:23.385Z,43.87
2018-11-10T11:31:52.134Z,41.00
2018-11-10T11:34:20.890Z,39.03
2018-11-10T11:36:49.628Z,43.20
2018-11-10T11:39:18.387Z,42.87
2018-11-10T11:41:47.182Z,40.63
2018-11-10T11:44:22.612Z,39.57
2018-11-10T11:46:51.416Z,41.73
2018-11-10T11:49:20.150Z,37.77
2018-11-10T11:51:48.948Z,38.13
2018-11-10T11:54:17.670Z,37.10
2018-11-10T11:56:46.355Z,35.60
2018-11-10T11:59:15.116Z,35.20
2018-11-10T12:01:43.793Z,38.63
2018-11-10T12:04:12.518Z,35.10
2018-11-10T12:06:41.210Z,37.80
2018-11-10T12:09:10.893Z,36.77
2018-11-10T12:11:39.605Z,34.47
2018-11-10T12:14:08.331Z,36.20
2018-11-10T12:16:37.120Z,32.03
2018-11-10T12:19:06.209Z,34.70
2018-11-10T12:21:34.983Z,34.73
2018-11-10T12:24:03.781Z,33.60
2018-11-10T12:26:32.642Z,35.33
2018-11-10T12:29:01.399Z,38.60
2018-11-10T12:31:30.199Z,32.30
2018-11-10T12:33:58.899Z,32.93
2018-11-10T12:36:27.725Z,33.30
2018-11-10T12:38:56.465Z,33.73
2018-11-10T12:41:25.272Z,32.77
2018-11-10T12:43:54.089Z,29.57
2018-11-10T12:46:22.890Z,32.40
2018-11-10T12:48:51.633Z,35.03
2018-11-10T12:51:20.321Z,31.80
2018-11-10T12:53:49.020Z,30.53
2018-11-10T12:56:17.701Z,30.57
2018-11-10T12:58:46.422Z,31.83
2018-11-10T13:01:15.119Z,32.57
2018-11-10T13:03:43.973Z,30.97
2018-11-10T13:06:12.623Z,30.13
2018-11-10T13:08:41.360Z,29.67
2018-11-10T13:11:10.083Z,30.93
2018-11-10T13:13:38.927Z,29.90
2018-11-10T13:16:07.638Z,32.53
2018-11-10T13:18:36.549Z,30.53
2018-11-10T13:21:05.638Z,26.47
2018-11-10T13:23:34.448Z,32.03
2018-11-10T13:26:03.220Z,25.83
2018-11-10T13:28:32.093Z,29.60
2018-11-10T13:31:00.907Z,29.83
2018-11-10T13:33:29.460Z,30.07
2018-11-10T13:35:58.148Z,31.30
2018-11-10T13:38:26.902Z,28.57
2018-11-10T13:40:55.586Z,29.67
2018-11-10T13:43:24.633Z,26.27
2018-11-10T13:45:53.280Z,25.97
2018-11-10T13:48:21.951Z,26.63
2018-11-10T13:50:50.906Z,30.93
2018-11-10T13:53:19.394Z,28.83
2018-11-10T13:55:48.076Z,28.33
2018-11-10T13:58:16.880Z,30.50
2018-11-10T14:00:45.686Z,30.93
2018-11-10T14:03:14.409Z,28.93
2018-11-10T14:05:43.210Z,29.97
2018-11-10T14:08:11.825Z,28.83
2018-11-10T14:10:40.496Z,29.33
2018-11-10T14:13:09.235Z,28.33
2018-11-10T14:15:37.965Z,26.77
2018-11-10T14:18:06.662Z,31.43
2018-11-10T14:20:35.558Z,30.37
2018-11-10T14:23:04.588Z,32.03
2018-11-10T14:25:33.345Z,33.40
2018-11-10T14:28:02.053Z,27.53
2018-11-10T14:30:30.876Z,30.63
2018-11-10T14:32:59.664Z,35.00
2018-11-10T14:35:28.327Z,33.27
2018-11-10T14:37:57.021Z,33.57
2018-11-10T14:40:25.717Z,31.03
2018-11-10T14:42:54.429Z,27.67
2018-11-10T14:45:23.199Z,32.13
2018-11-10T14:47:58.625Z,31.63
2018-11-10T14:50:27.313Z,30.70
2018-11-10T14:52:56.135Z,33.17
2018-11-10T14:55:24.733Z,31.40
2018-11-10T14:57:53.415Z,31.07
2018-11-10T15:00:26.108Z,32.03
2018-11-10T15:02:54.899Z,30.50
2018-11-10T15:05:23.639Z,25.70
2018-11-10T15:07:52.348Z,33.03
2018-11-10T15:10:21.112Z,29.53
2018-11-10T15:12:49.895Z,28.17
2018-11-10T15:15:19.390Z,27.23
2018-11-10T15:17:48.592Z,28.50
2018-11-10T15:20:18.300Z,34.47
2018-11-10T15:22:47.434Z,32.87
2018-11-10T15:25:17.548Z,33.43
2018-11-10T15:27:46.311Z,35.10
2018-11-10T15:30:16.194Z,35.67
2018-11-10T15:32:45.784Z,34.70
2018-11-10T15:35:15.656Z,33.90
2018-11-10T15:37:45.739Z,40.40
2018-11-10T15:40:15.266Z,36.40
2018-11-10T15:42:44.037Z,39.17
2018-11-10T15:45:13.904Z,33.73
2018-11-10T15:47:42.978Z,31.23
2018-11-10T15:50:13.050Z,34.53
2018-11-10T15:52:42.060Z,34.03
2018-11-10T15:55:11.688Z,38.50
2018-11-10T15:57:40.749Z,35.93
2018-11-10T16:00:11.865Z,33.13
2018-11-10T16:02:40.868Z,42.20
2018-11-10T16:05:10.597Z,33.27
2018-11-10T16:07:39.656Z,32.90
2018-11-10T16:10:08.523Z,37.73
2018-11-10T16:12:37.352Z,34.67
2018-11-10T16:15:08.809Z,32.33
2018-11-10T16:17:37.595Z,38.40
2018-11-10T16:20:08.777Z,33.07
2018-11-10T16:22:37.564Z,37.67
2018-11-10T16:25:07.221Z,34.93
2018-11-10T16:27:36.081Z,34.97
2018-11-10T16:30:06.018Z,36.07
2018-11-10T16:32:34.778Z,39.03
2018-11-10T16:35:03.651Z,42.00
2018-11-10T16:37:32.366Z,35.50
2018-11-10T16:40:01.057Z,41.67
2018-11-10T16:42:29.851Z,41.10
2018-11-10T16:44:58.724Z,41.27
2018-11-10T16:47:27.266Z,37.63
2018-11-10T16:49:56.006Z,36.17
2018-11-10T16:52:24.694Z,41.50
2018-11-10T16:54:53.472Z,43.30
2018-11-10T16:57:22.140Z,39.73
2018-11-10T16:59:50.974Z,42.70
2018-11-10T17:02:19.748Z,41.23
2018-11-10T17:04:48.481Z,41.43
2018-11-10T17:07:17.242Z,39.40
2018-11-10T17:09:45.975Z,37.27
2018-11-10T17:12:14.781Z,44.23
2018-11-10T17:14:43.499Z,48.00
2018-11-10T17:17:12.270Z,41.50
2018-11-10T17:19:40.964Z,39.27
2018-11-10T17:22:09.762Z,44.33
2018-11-10T17:24:38.626Z,40.87
2018-11-10T17:27:07.421Z,43.63
2018-11-10T17:29:36.058Z,40.73
2018-11-10T17:32:04.854Z,42.00
2018-11-10T17:34:33.532Z,43.77
2018-11-10T17:37:02.231Z,40.80
2018-11-10T17:39:30.997Z,47.07
2018-11-10T17:41:59.658Z,43.20
2018-11-10T17:44:28.362Z,43.37
2018-11-10T17:46:57.260Z,43.30
2018-11-10T17:49:26.107Z,48.40
2018-11-10T17:51:54.951Z,45.10
2018-11-10T17:54:23.665Z,41.90
2018-11-10T17:56:52.476Z,47.10
2018-11-10T17:59:21.345Z,47.70
2018-11-10T18:01:50.306Z,42.30
2018-11-10T18:04:18.966Z,39.80
2018-11-10T18:06:47.678Z,44.47
2018-11-10T18:09:16.421Z,45.83
2018-11-10T18:11:45.049Z,41.90
2018-11-10T18:14:20.141Z,42.63
2018-11-10T18:16:48.878Z,43.60
2018-11-10T18:19:17.596Z,44.07
2018-11-10T18:21:46.254Z,43.93
2018-11-10T18:24:14.933Z,42.30
2018-11-10T18:26:43.650Z,40.77
2018-11-10T18:29:12.771Z,43.57
2018-11-10T18:31:41.439Z,47.47
2018-11-10T18:34:10.131Z,45.97
2018-11-10T18:36:39.037Z,43.70
2018-11-10T18:39:09.293Z,40.27
2018-11-10T18:41:38.149Z,47.87
2018-11-10T18:44:07.070Z,42.60
2018-11-10T18:46:35.781Z,42.83
2018-11-10T18:49:04.480Z,43.60
2018-11-10T18:51:33.134Z,44.23
2018-11-10T18:54:01.857Z,49.50
2018-11-10T18:56:30.534Z,45.67
2018-11-10T18:58:59.236Z,46.03
2018-11-10T19:01:27.904Z,42.03
2018-11-10T19:03:56.584Z,49.77
2018-11-10T19:06:25.419Z,49.57
2018-11-10T19:08:54.056Z,42.93
2018-11-10T19:11:22.729Z,45.07
2018-11-10T19:13:51.506Z,49.30
2018-11-10T19:16:20.175Z,46.87
2018-11-10T19:18:48.992Z,48.43
2018-11-10T19:21:17.740Z,50.90
2018-11-10T19:23:46.427Z,46.37
2018-11-10T19:26:15.100Z,45.70
2018-11-10T19:28:43.976Z,49.50
2018-11-10T19:31:12.650Z,48.37
2018-11-10T19:33:41.413Z,47.57
2018-11-10T19:36:10.206Z,48.77
2018-11-10T19:38:38.880Z,47.63
2018-11-10T19:41:07.605Z,43.50
2018-11-10T19:43:36.326Z,50.50
2018-11-10T19:46:05.216Z,48.63
2018-11-10T19:48:33.878Z,49.20
2018-11-10T19:51:07.118Z,48.97
2018-11-10T19:53:35.549Z,50.20
2018-11-10T19:56:04.212Z,56.83
2018-11-10T19:58:33.207Z,48.40
2018-11-10T20:01:01.947Z,52.23
2018-11-10T20:03:30.761Z,45.80
2018-11-10T20:05:59.542Z,49.37
2018-11-10T20:08:28.362Z,51.57
2018-11-10T20:10:57.072Z,50.13
2018-11-10T20:13:26.149Z,57.37
2018-11-10T20:15:54.946Z,50.60
2018-11-10T20:18:23.701Z,55.50
2018-11-10T20:20:52.502Z,52.50
2018-11-10T20:23:21.222Z,56.97
2018-11-10T20:25:49.915Z,59.50
2018-11-10T20:28:18.605Z,55.83
2018-11-10T20:30:47.313Z,48.50
2018-11-10T20:33:15.989Z,50.87
2018-11-10T20:35:44.727Z,54.83
2018-11-10T20:38:13.653Z,52.97
2018-11-10T20:40:42.609Z,58.67
2018-11-10T20:43:11.333Z,50.37
2018-11-10T20:45:40.181Z,57.67
2018-11-10T20:48:08.932Z,60.30
2018-11-10T20:50:37.860Z,55.07
2018-11-10T20:53:06.500Z,60.93
2018-11-10T20:55:35.161Z,50.43
2018-11-10T20:58:03.841Z,49.77
2018-11-10T21:00:32.565Z,50.73
2018-11-10T21:03:01.207Z,50.07
2018-11-10T21:05:29.897Z,55.37
2018-11-10T21:07:58.650Z,57.73
2018-11-10T21:10:27.314Z,53.43
2018-11-10T21:12:56.150Z,51.43
2018-11-10T21:15:24.683Z,55.80
2018-11-10T21:17:53.346Z,57.80
2018-11-10T21:20:22.172Z,54.57
2018-11-10T21:22:50.783Z,51.80
2018-11-10T21:25:19.504Z,50.70
2018-11-10T21:27:48.340Z,50.20
2018-11-10T21:30:18.668Z,51.27
2018-11-10T21:32:47.794Z,50.97
2018-11-10T21:35:16.693Z,48.70
2018-11-10T21:37:45.294Z,50.03
2018-11-10T21:40:15.115Z,53.07
2018-11-10T21:42:44.082Z,52.23
2018-11-10T21:45:13.632Z,51.87
2018-11-10T21:47:42.539Z,52.07
2018-11-10T21:50:13.438Z,51.13
2018-11-10T21:52:43.035Z,50.40
2018-11-10T21:55:14.088Z,49.47
2018-11-10T21:57:43.488Z,51.27
2018-11-10T22:00:14.490Z,50.90
2018-11-10T22:02:43.692Z,54.00
2018-11-10T22:05:12.469Z,55.10
2018-11-10T22:07:41.139Z,57.30
2018-11-10T22:10:11.800Z,49.00
2018-11-10T22:12:40.730Z,55.10
2018-11-10T22:15:12.011Z,51.10
2018-11-10T22:17:41.312Z,55.37
2018-11-10T22:20:11.550Z,52.17
2018-11-10T22:22:40.337Z,53.63
2018-11-10T22:25:10.038Z,54.40
2018-11-10T22:27:39.952Z,53.43
2018-11-10T22:30:09.592Z,51.07
2018-11-10T22:32:38.286Z,51.93
2018-11-10T22:35:07.386Z,51.80
2018-11-10T22:37:36.174Z,53.57
2018-11-10T22:40:06.059Z,52.73
2018-11-10T22:42:35.275Z,56.43
2018-11-10T22:45:04.148Z,59.57
2018-11-10T22:47:32.832Z,53.03
2018-11-10T22:50:01.506Z,59.87
2018-11-10T22:52:30.169Z,56.17
2018-11-10T22:54:58.839Z,56.47
2018-11-10T22:57:27.518Z,59.27
2018-11-10T22:59:56.288Z,55.63
2018-11-10T23:02:25.004Z,58.37
2018-11-10T23:04:53.680Z,58.30
2018-11-10T23:07:22.348Z,57.03
2018-11-10T23:09:51.074Z,58.17
2018-11-10T23:12:19.741Z,57.00
2018-11-10T23:14:48.576Z,57.80
2018-11-10T23:17:17.431Z,54.33
2018-11-10T23:19:46.052Z,53.77
2018-11-10T23:22:14.693Z,55.53
2018-11-10T23:24:43.378Z,55.27
2018-11-10T23:27:12.280Z,56.80
2018-11-10T23:29:40.953Z,54.17
2018-11-10T23:32:09.696Z,58.00
2018-11-10T23:34:38.347Z,57.27
2018-11-10T23:37:07.069Z,56.53
2018-11-10T23:39:35.743Z,56.57
2018-11-10T23:42:04.757Z,62.83
2018-11-10T23:44:33.584Z,57.77
2018-11-10T23:47:02.225Z,56.80
2018-11-10T23:49:30.899Z,55.77
2018-11-10T23:51:59.931Z,59.60
2018-11-10T23:54:28.697Z,54.77
2018-11-10T23:56:57.450Z,60.00
2018-11-10T23:59:26.219Z,58.73
